CheckWX is a tool to help pilots better visualize weather data.  It is not intended as a substitute for an official pre-flight weather briefing.

00:57:07 UTC

KQEY METAR
Geumsan Rws
Geumsan Rws, South Korea
Current

6 hours ago

KQEY 191910Z AUTO 28001KT 6000 HZ OVC032 01/M03 A2983 RMK A02 TSNO
Observed
Jan-19 @ 19:10 UTC
Wind
  • 280° at 1 KTS
Visibility
6,000 meters
Flight Rules
MVFR
Conditions
Haze
Cloud Levels
  • Overcast at 3,200' AGL
Temperature
C / 34°F
Dewpoint
-3°C / 27°F
Humidity
75%
Altimeter
29.83" Hg
Pressure
1010.12 hPa
Previous

6 hours ago

KQEY 191850Z AUTO 21001KT 6000 HZ OVC034 01/M03 A2983 RMK A02 TSNO
Observed
Jan-19 @ 18:50 UTC
Wind
  • 210° at 1 KTS
Visibility
6,000 meters
Flight Rules
MVFR
Conditions
Haze
Cloud Levels
  • Overcast at 3,400' AGL
Temperature
C / 34°F
Dewpoint
-3°C / 27°F
Humidity
75%
Altimeter
29.83" Hg
Pressure
1010.12 hPa
Previous

6 hours ago

KQEY 191840Z AUTO 00000KT 6000 HZ OVC035 02/M03 A2983 RMK A02 TSNO
Observed
Jan-19 @ 18:40 UTC
Visibility
6,000 meters
Flight Rules
MVFR
Conditions
Haze
Cloud Levels
  • Overcast at 3,500' AGL
Temperature
C / 36°F
Dewpoint
-3°C / 27°F
Humidity
70%
Altimeter
29.83" Hg
Pressure
1010.12 hPa